| Date | Time | Temp. (oF) | Dew Point (oF) | Rel. Hum. (%) | Press. (in.) | Wind Dir. | Wind Speed (mph) | Hourly Rainfall (in.) |
|
|---|---|---|---|---|---|---|---|---|---|
| 1 | 08/14 | 00:00 | 82 | 71 | 70 | 29.84 | WSW | 2 | 0.00 |
| 2 | 08/13 | 23:00 | 84 | 72 | 68 | 29.81 | S | 0 | 0.00 |
| 3 | 08/13 | 22:00 | 84 | 77 | 80 | 29.81 | SSE | 3 | 0.00 |
| 4 | 08/13 | 21:00 | 85 | 76 | 77 | 29.79 | SSE | 2 | 0.00 |
| 5 | 08/13 | 20:00 | 87 | 76 | 72 | 29.77 | SE | 0 | 0.00 |
| 6 | 08/13 | 19:00 | 89 | 77 | 69 | 29.75 | SSE | 4 | 0.00 |
| 7 | 08/13 | 18:00 | 91 | 77 | 65 | 29.73 | SSE | 7 | 0.00 |
| 8 | 08/13 | 17:00 | 93 | 75 | 58 | 29.76 | SSE | 7 | 0.00 |
| 9 | 08/13 | 16:00 | 95 | 75 | 54 | 29.78 | SE | 4 | 0.00 |
| 10 | 08/13 | 15:00 | 94 | 74 | 53 | 29.80 | SE | 6 | 0.00 |
| 11 | 08/13 | 14:00 | 93 | 74 | 56 | 29.81 | SSE | 3 | 0.00 |
| 12 | 08/13 | 13:00 | 92 | 75 | 60 | 29.82 | SW | 0 | 0.00 |
| 13 | 08/13 | 12:00 | 91 | 77 | 65 | 29.84 | SE | 2 | 0.00 |
| 14 | 08/13 | 11:00 | 88 | 75 | 67 | 29.85 | ENE | 2 | 0.00 |
| 15 | 08/13 | 10:00 | 86 | 77 | 76 | 29.85 | SSE | 6 | 0.00 |
| 16 | 08/13 | 09:00 | 82 | 76 | 84 | 29.87 | S | 0 | 0.00 |
| 17 | 08/13 | 08:00 | 78 | 75 | 92 | 29.86 | SSE | 5 | 0.00 |
| 18 | 08/13 | 07:00 | 75 | 73 | 95 | 29.85 | SSE | 0 | 0.00 |
| 19 | 08/13 | 06:00 | 75 | 72 | 92 | 29.85 | S | 0 | 0.00 |
| 20 | 08/13 | 05:00 | 76 | 72 | 90 | 29.84 | SSE | 0 | 0.00 |
| 21 | 08/13 | 04:00 | 77 | 73 | 89 | 29.83 | S | 0 | 0.00 |
| 22 | 08/13 | 03:00 | 77 | 72 | 87 | 29.83 | SW | 0 | 0.00 |
| 23 | 08/13 | 02:00 | 78 | 73 | 85 | 29.82 | SSE | 0 | 0.00 |
| 24 | 08/13 | 01:00 | 79 | 73 | 84 | 29.83 | SSE | 3 | 0.00 |